Time;durP1;ratioP1;P1;durP2;ratioP2;P2;SDS_P1;SDS_P2;PMS_P1;PMS_P2;Temp;Humidity;BMP_temperature;BMP_pressure;BME280_temperature;BME280_humidity;BME280_pressure;Samples;Min_cycle;Max_cycle;Signal;HPM_P1;HPM_P2
2022/09/12 00:01:14;;;;;;;3.35;1.90;;;;;;;15.15;84.67;101015.50;5046580;28;20052;-65
2022/09/12 00:03:42;;;;;;;3.25;2.50;;;;;;;15.08;84.75;101019.53;5061072;28;20045;-67
2022/09/12 00:06:16;;;;;;;2.05;1.60;;;;;;;15.04;85.10;101010.13;5063630;28;20045;-65
2022/09/12 00:08:49;;;;;;;3.00;1.95;;;;;;;15.00;84.77;101016.59;5052720;28;20047;-65
2022/09/12 00:11:17;;;;;;;3.72;2.00;;;;;;;14.96;85.10;101007.19;5063144;28;20045;-65
2022/09/12 00:13:44;;;;;;;5.22;2.38;;;;;;;14.94;85.05;101007.25;5065160;28;20044;-66
2022/09/12 00:16:22;;;;;;;3.05;1.73;;;;;;;14.93;85.16;101013.53;5053870;28;20368;-65
2022/09/12 00:18:51;;;;;;;4.43;2.85;;;;;;;14.94;85.54;101006.41;5061031;28;20053;-67
2022/09/12 00:21:19;;;;;;;4.07;1.73;;;;;;;14.87;85.32;101005.19;5065812;28;20685;-66
2022/09/12 00:23:47;;;;;;;3.67;2.00;;;;;;;14.86;85.41;101003.47;5063884;28;20049;-66
2022/09/12 00:26:14;;;;;;;2.75;1.65;;;;;;;14.83;85.21;101001.88;5066656;28;20059;-65
2022/09/12 00:28:41;;;;;;;3.20;2.00;;;;;;;14.83;84.94;101001.88;5068649;28;20048;-66
2022/09/12 00:31:11;;;;;;;3.92;1.95;;;;;;;14.76;85.82;101002.41;5070158;28;20062;-68
2022/09/12 00:33:38;;;;;;;6.30;2.08;;;;;;;14.71;85.44;100999.25;5066602;28;20056;-65
2022/09/12 00:36:19;;;;;;;2.90;1.98;;;;;;;14.72;85.36;101003.59;5066506;28;20063;-66
2022/09/12 00:38:47;;;;;;;2.15;1.80;;;;;;;14.73;84.88;101005.31;5064078;28;20052;-65
2022/09/12 00:41:20;;;;;;;4.57;1.85;;;;;;;14.68;85.15;101006.47;5068058;28;20497;-65
2022/09/12 00:43:59;;;;;;;3.58;2.00;;;;;;;14.67;85.83;101006.56;5066256;28;20052;-65
2022/09/12 00:46:29;;;;;;;2.22;1.77;;;;;;;14.60;85.69;101006.16;5063859;28;20049;-65
2022/09/12 00:49:03;;;;;;;3.67;1.65;;;;;;;14.58;85.74;101001.91;5064698;28;20040;-64
2022/09/12 00:51:32;;;;;;;2.58;1.60;;;;;;;14.57;85.17;101006.34;5049402;28;20059;-65
2022/09/12 00:54:02;;;;;;;3.63;1.95;;;;;;;14.54;85.42;101001.25;5064823;28;20049;-66
2022/09/12 00:56:30;;;;;;;4.18;1.70;;;;;;;14.50;85.49;100996.28;5051979;28;20043;-66
2022/09/12 00:59:02;;;;;;;4.22;1.52;;;;;;;14.50;85.31;101002.47;5048774;28;20056;-66
2022/09/12 01:01:29;;;;;;;2.65;1.73;;;;;;;14.49;85.29;101002.53;5049861;28;20114;-65
2022/09/12 01:03:59;;;;;;;2.35;1.85;;;;;;;14.44;85.95;101003.69;5045889;28;20071;-66
2022/09/12 01:06:31;;;;;;;4.57;2.00;;;;;;;14.36;87.20;101002.50;5050828;28;20080;-65
2022/09/12 01:08:58;;;;;;;2.70;1.88;;;;;;;14.26;87.61;101001.44;5061526;28;20094;-66
2022/09/12 01:11:25;;;;;;;1.95;1.60;;;;;;;14.26;87.07;101002.28;5049225;28;20048;-65
2022/09/12 01:13:53;;;;;;;4.28;1.88;;;;;;;14.26;87.00;100996.16;5048032;28;20045;-65
2022/09/12 01:16:20;;;;;;;3.13;1.67;;;;;;;14.23;87.08;101001.66;5051712;28;20049;-66
2022/09/12 01:18:57;;;;;;;3.92;1.40;;;;;;;14.24;86.71;100992.78;5046613;28;20128;-66
2022/09/12 01:21:39;;;;;;;2.38;1.70;;;;;;;14.22;86.99;100994.66;5048244;28;20405;-66
2022/09/12 01:24:24;;;;;;;3.88;1.60;;;;;;;14.19;86.51;101001.03;5043068;28;20808;-66
2022/09/12 01:27:10;;;;;;;1.88;1.35;;;;;;;14.15;86.60;101003.03;5062900;28;20048;-66
2022/09/12 01:30:05;;;;;;;3.15;1.50;;;;;;;14.16;86.23;101004.72;5067092;28;20059;-65
2022/09/12 01:33:04;;;;;;;2.40;1.23;;;;;;;14.23;86.13;101001.66;5048751;28;20051;-65
2022/09/12 01:35:40;;;;;;;1.67;1.48;;;;;;;14.18;86.28;101000.19;5065390;28;20500;-65
2022/09/12 01:38:13;;;;;;;1.83;1.48;;;;;;;14.16;86.07;101009.19;5046526;28;20049;-66
2022/09/12 01:40:46;;;;;;;2.58;1.50;;;;;;;14.13;86.29;100996.13;5062721;28;20049;-69
2022/09/12 01:43:23;;;;;;;2.20;1.40;;;;;;;14.06;86.87;100997.53;5062127;28;20054;-66
2022/09/12 01:45:57;;;;;;;1.55;1.40;;;;;;;14.04;86.62;100996.75;5065807;28;20052;-65
2022/09/12 01:48:30;;;;;;;4.97;1.70;;;;;;;14.02;86.44;100991.56;5044741;28;20427;-65
2022/09/12 01:51:32;;;;;;;2.72;1.70;;;;;;;14.04;86.66;100988.81;5045957;28;20408;-64
2022/09/12 01:54:07;;;;;;;3.28;1.38;;;;;;;13.98;86.91;100982.16;5062823;28;20049;-66
2022/09/12 01:56:37;;;;;;;3.90;1.90;;;;;;;13.90;86.67;100979.16;5066473;28;20467;-66
2022/09/12 01:59:10;;;;;;;3.63;1.63;;;;;;;13.91;86.93;100984.38;5058701;28;20623;-66
2022/09/12 02:01:46;;;;;;;6.28;2.17;;;;;;;13.92;86.81;100980.78;5045756;28;20048;-66
2022/09/12 02:04:23;;;;;;;6.25;2.15;;;;;;;13.93;86.86;100982.44;5044984;28;20040;-66
2022/09/12 02:06:58;;;;;;;2.28;1.70;;;;;;;13.89;87.04;100985.41;5051971;28;20056;-66
2022/09/12 02:09:29;;;;;;;2.53;1.77;;;;;;;13.85;86.94;100984.75;5049452;28;20048;-65
2022/09/12 02:11:58;;;;;;;2.60;1.58;;;;;;;13.87;87.35;100992.63;5063360;28;20162;-65
2022/09/12 02:14:28;;;;;;;3.25;1.88;;;;;;;13.89;86.77;100990.72;5042958;28;20060;-65
2022/09/12 02:17:09;;;;;;;2.03;1.80;;;;;;;13.85;86.93;100984.75;5050217;28;20619;-65
2022/09/12 02:19:40;;;;;;;2.72;1.60;;;;;;;13.86;86.51;100988.25;5046143;28;20064;-65
2022/09/12 02:22:12;;;;;;;4.20;2.25;;;;;;;13.81;86.67;100990.38;5047425;28;20123;-66
2022/09/12 02:24:42;;;;;;;4.43;1.85;;;;;;;13.80;86.77;101000.09;5063892;28;20058;-66
2022/09/12 02:27:12;;;;;;;2.30;1.77;;;;;;;13.73;87.51;100987.38;5047170;28;20045;-66
2022/09/12 02:29:40;;;;;;;3.40;2.38;;;;;;;13.72;87.10;100986.53;5047321;28;20126;-65
2022/09/12 02:32:19;;;;;;;2.00;1.80;;;;;;;13.73;87.10;100988.22;5066899;28;20056;-67
2022/09/12 02:34:51;;;;;;;2.05;1.83;;;;;;;13.76;86.72;100987.19;5058311;28;20537;-66
2022/09/12 02:37:33;;;;;;;2.80;2.15;;;;;;;13.76;86.38;100982.72;5063544;28;20075;-66
2022/09/12 02:40:00;;;;;;;3.30;1.75;;;;;;;13.77;86.57;100978.28;5046600;28;20044;-66
2022/09/12 02:42:27;;;;;;;5.07;2.33;;;;;;;13.80;86.17;100986.88;5047204;28;20044;-67
2022/09/12 02:44:55;;;;;;;2.80;2.10;;;;;;;13.77;86.20;100988.88;5063127;28;20048;-66
2022/09/12 02:47:27;;;;;;;2.45;1.80;;;;;;;13.71;86.54;100986.63;5069086;28;20064;-65
2022/09/12 02:49:55;;;;;;;3.90;2.15;;;;;;;13.68;86.66;100985.88;5056296;28;20051;-65
2022/09/12 02:52:22;;;;;;;4.15;2.10;;;;;;;13.68;86.41;100993.81;5046102;28;20487;-67
2022/09/12 02:54:50;;;;;;;5.22;1.95;;;;;;;13.64;86.40;100987.06;5029464;28;20053;-66
2022/09/12 02:57:19;;;;;;;3.58;1.92;;;;;;;13.65;86.52;100985.25;5065081;28;20078;-67
2022/09/12 02:59:52;;;;;;;3.13;2.00;;;;;;;13.66;86.52;100987.78;5056799;28;20045;-67
2022/09/12 03:02:39;;;;;;;3.08;2.03;;;;;;;13.68;86.30;100998.25;5048821;28;20053;-66
2022/09/12 03:05:09;;;;;;;4.03;2.22;;;;;;;13.67;86.04;100994.78;5044656;28;20048;-65
2022/09/12 03:07:58;;;;;;;3.55;2.20;;;;;;;13.64;86.59;100995.00;5055422;28;20041;-65
2022/09/12 03:10:34;;;;;;;6.20;2.75;;;;;;;13.63;86.83;100998.56;5059669;28;20567;-65
2022/09/12 03:13:32;;;;;;;4.20;2.97;;;;;;;13.57;88.39;100998.13;5059945;28;20082;-65
2022/09/12 03:16:22;;;;;;;3.22;2.13;;;;;;;13.53;87.35;100992.19;5047079;28;20048;-66
2022/09/12 03:19:11;;;;;;;5.35;2.30;;;;;;;13.53;87.31;100988.69;5042593;28;20531;-66
2022/09/12 03:22:09;;;;;;;2.83;2.33;;;;;;;13.55;87.57;100997.38;5058831;28;20089;-65
2022/09/12 03:25:16;;;;;;;8.07;2.13;;;;;;;13.54;87.92;100983.28;5042318;28;20075;-65
2022/09/12 03:27:50;;;;;;;4.97;2.28;;;;;;;13.51;87.69;100991.44;5019436;28;20049;-66
2022/09/12 03:30:17;;;;;;;5.60;2.80;;;;;;;13.51;87.53;100991.44;5022451;28;20064;-65
2022/09/12 03:32:47;;;;;;;5.05;2.97;;;;;;;13.48;88.27;100993.44;5021517;28;20155;-67
2022/09/12 03:35:16;;;;;;;4.75;2.67;;;;;;;13.40;88.85;100992.13;5063611;28;20047;-66
2022/09/12 03:37:50;;;;;;;4.28;2.88;;;;;;;13.39;88.81;100992.25;5054599;28;20066;-67
2022/09/12 03:40:17;;;;;;;4.03;2.33;;;;;;;13.41;88.37;100998.25;5064965;28;20055;-66
2022/09/12 03:42:44;;;;;;;4.45;2.80;;;;;;;13.39;89.29;100989.59;5059841;28;20041;-67
2022/09/12 03:45:11;;;;;;;3.78;2.50;;;;;;;13.28;89.44;100994.72;5062570;28;20067;-65
2022/09/12 03:47:39;;;;;;;4.03;2.60;;;;;;;13.29;89.00;100996.44;5061757;28;20067;-65
2022/09/12 03:50:06;;;;;;;4.07;3.00;;;;;;;13.30;89.21;101000.78;5061585;28;20067;-66
2022/09/12 03:52:33;;;;;;;4.05;2.67;;;;;;;13.28;89.18;100992.06;5043475;28;20037;-66
2022/09/12 03:55:01;;;;;;;3.90;2.65;;;;;;;13.29;88.71;100991.16;5060621;28;20210;-65
2022/09/12 03:57:28;;;;;;;4.40;2.47;;;;;;;13.32;88.23;100996.22;5056801;28;20059;-67
2022/09/12 03:59:55;;;;;;;5.50;2.90;;;;;;;13.35;88.16;101006.59;5063506;28;20985;-66
2022/09/12 04:02:22;;;;;;;3.00;2.20;;;;;;;13.35;88.14;101002.16;5064191;28;20059;-65
2022/09/12 04:04:49;;;;;;;6.97;3.30;;;;;;;13.37;88.44;101005.56;5061460;28;20055;-66
2022/09/12 04:07:16;;;;;;;7.07;3.17;;;;;;;13.35;88.30;101006.59;5064492;28;20048;-65
2022/09/12 04:09:44;;;;;;;4.28;3.00;;;;;;;13.31;88.34;101005.94;5067430;28;20048;-65
2022/09/12 04:12:12;;;;;;;4.85;2.90;;;;;;;13.29;88.62;101004.38;5063974;28;20045;-65
2022/09/12 04:14:39;;;;;;;5.65;3.13;;;;;;;13.26;88.69;101001.91;5061545;28;20055;-65
2022/09/12 04:17:07;;;;;;;4.50;3.33;;;;;;;13.22;88.99;100988.03;5049745;28;20048;-66
2022/09/12 04:19:34;;;;;;;4.05;2.70;;;;;;;13.18;88.77;101000.56;5064381;28;20059;-66
2022/09/12 04:22:02;;;;;;;6.13;3.13;;;;;;;13.20;88.49;100989.91;5067553;28;20044;-65
2022/09/12 04:24:29;;;;;;;5.30;2.85;;;;;;;13.23;88.38;100996.81;5066999;28;20052;-67
2022/09/12 04:26:57;;;;;;;7.72;3.95;;;;;;;13.25;88.58;100992.28;5068552;28;20120;-66
2022/09/12 04:29:24;;;;;;;5.60;3.58;;;;;;;13.26;88.82;100997.47;5068752;28;20067;-65
2022/09/12 04:31:52;;;;;;;5.97;3.30;;;;;;;13.25;88.58;100997.56;5065314;28;20048;-66
2022/09/12 04:34:19;;;;;;;6.13;3.22;;;;;;;13.22;88.10;100985.38;5063850;28;20068;-67
2022/09/12 04:36:46;;;;;;;5.32;3.72;;;;;;;13.22;88.75;100985.38;5066067;28;20052;-66
2022/09/12 04:39:13;;;;;;;9.93;4.60;;;;;;;13.26;89.79;100988.69;5075773;28;20136;-66
2022/09/12 04:41:40;;;;;;;7.72;3.63;;;;;;;13.21;89.91;100988.94;5079505;28;20978;-66
2022/09/12 04:44:11;;;;;;;6.38;3.53;;;;;;;13.21;89.38;100993.41;5059368;28;20610;-66
2022/09/12 04:46:41;;;;;;;9.95;4.70;;;;;;;13.21;89.22;101002.16;5081139;28;20647;-66
2022/09/12 04:49:08;;;;;;;8.90;4.05;;;;;;;13.21;89.30;101003.97;5080452;28;20067;-66
2022/09/12 04:51:38;;;;;;;11.85;4.95;;;;;;;13.17;91.04;100998.88;5068983;28;20139;-66
2022/09/12 04:54:11;;;;;;;13.43;4.43;;;;;;;13.13;91.71;100996.53;5065145;28;20051;-66
2022/09/12 04:56:39;;;;;;;7.50;4.78;;;;;;;13.09;91.50;100995.84;5065795;28;20053;-66
2022/09/12 04:59:07;;;;;;;7.47;4.78;;;;;;;13.13;91.23;101002.66;5062138;28;20056;-66
2022/09/12 05:01:34;;;;;;;8.05;4.70;;;;;;;13.14;90.70;101009.63;5064622;28;20049;-65
2022/09/12 05:04:02;;;;;;;8.48;4.40;;;;;;;13.16;90.05;101002.47;5046731;28;20099;-67
2022/09/12 05:06:32;;;;;;;6.90;4.65;;;;;;;13.18;89.93;100999.72;5064414;28;20064;-66
2022/09/12 05:09:00;;;;;;;9.95;4.75;;;;;;;13.19;90.04;100998.75;5071890;28;20055;-66
2022/09/12 05:11:30;;;;;;;7.63;5.05;;;;;;;13.13;92.23;100993.88;5054060;28;20040;-66
2022/09/12 05:14:17;;;;;;;8.38;4.80;;;;;;;13.10;91.19;100994.06;5078190;28;20046;-65
2022/09/12 05:16:45;;;;;;;10.32;4.53;;;;;;;13.14;90.55;101004.34;5066520;28;20059;-64
2022/09/12 05:19:15;;;;;;;8.82;5.13;;;;;;;13.22;91.50;100997.72;5074431;28;20049;-66
2022/09/12 05:21:42;;;;;;;9.23;4.70;;;;;;;13.25;91.54;101008.16;5073033;28;20399;-66
2022/09/12 05:24:10;;;;;;;8.52;5.20;;;;;;;13.25;93.19;100998.41;5068931;28;20052;-67
2022/09/12 05:26:37;;;;;;;10.50;4.50;;;;;;;13.16;94.02;101004.25;5068928;28;20056;-67
2022/09/12 05:29:05;;;;;;;7.13;4.97;;;;;;;13.21;95.28;101006.63;5066072;28;20075;-65
2022/09/12 05:31:33;;;;;;;8.93;4.70;;;;;;;13.09;95.87;101014.38;5074029;28;20048;-66
2022/09/12 05:34:04;;;;;;;10.55;4.75;;;;;;;13.06;96.35;101011.09;5071353;28;20420;-66
2022/09/12 05:36:32;;;;;;;6.07;4.40;;;;;;;13.07;95.42;101008.34;5078915;28;20049;-66
2022/09/12 05:38:59;;;;;;;8.15;4.50;;;;;;;13.12;94.18;101011.53;5063870;28;20074;-66
2022/09/12 05:41:29;;;;;;;7.80;4.38;;;;;;;13.18;94.04;101020.84;5064364;28;20072;-66
2022/09/12 05:44:02;;;;;;;7.38;4.45;;;;;;;13.23;92.87;101020.59;5059486;28;20041;-66
2022/09/12 05:46:31;;;;;;;10.63;5.38;;;;;;;13.22;95.23;101025.03;5042760;28;20068;-66
2022/09/12 05:49:02;;;;;;;8.48;5.32;;;;;;;13.22;94.15;101024.16;5073506;28;20057;-66
2022/09/12 05:51:32;;;;;;;14.90;5.57;;;;;;;13.22;94.13;101027.69;5069637;28;20052;-66
2022/09/12 05:54:02;;;;;;;9.88;4.68;;;;;;;13.26;93.40;101028.34;5065388;28;20464;-66
2022/09/12 05:56:32;;;;;;;10.60;4.47;;;;;;;13.29;92.98;101036.09;5065715;28;20053;-66
2022/09/12 05:59:09;;;;;;;9.77;5.18;;;;;;;13.33;92.51;101027.03;5059004;28;20056;-66
2022/09/12 06:01:36;;;;;;;9.93;5.70;;;;;;;13.39;92.53;101031.91;5048571;28;20060;-66
2022/09/12 06:04:05;;;;;;;9.15;5.15;;;;;;;13.45;93.91;101034.16;5060217;28;20058;-66
2022/09/12 06:06:36;;;;;;;9.05;4.40;;;;;;;13.47;92.33;101032.28;5066583;28;20067;-66
2022/09/12 06:09:04;;;;;;;9.82;4.60;;;;;;;13.54;91.36;101030.06;5067095;28;20044;-66
2022/09/12 06:11:34;;;;;;;10.00;5.07;;;;;;;13.60;90.84;101038.47;5063419;28;20074;-66
2022/09/12 06:14:02;;;;;;;11.38;4.78;;;;;;;13.64;90.34;101034.69;5073123;28;20036;-66
2022/09/12 06:16:31;;;;;;;9.02;4.60;;;;;;;13.68;89.62;101035.28;5069956;28;20041;-66
2022/09/12 06:19:02;;;;;;;8.93;5.13;;;;;;;13.74;90.74;101031.44;5067166;28;20064;-66
2022/09/12 06:21:33;;;;;;;8.00;5.05;;;;;;;13.80;90.91;101036.31;5057520;28;20632;-66
2022/09/12 06:24:01;;;;;;;6.90;4.70;;;;;;;13.81;90.77;101046.78;5069475;28;20041;-66
2022/09/12 06:26:28;;;;;;;10.27;5.70;;;;;;;13.85;90.85;101042.97;5069335;28;20059;-66
2022/09/12 06:28:57;;;;;;;9.32;5.35;;;;;;;13.87;91.59;101042.91;5060356;28;20409;-66
2022/09/12 06:31:27;;;;;;;8.77;4.60;;;;;;;13.90;91.38;101046.16;5049233;28;20516;-67
2022/09/12 06:33:56;;;;;;;11.13;5.45;;;;;;;13.97;91.04;101048.44;5067437;28;20123;-66
2022/09/12 06:36:25;;;;;;;9.30;4.93;;;;;;;14.01;90.52;101053.41;5069152;28;20508;-66
2022/09/12 06:38:57;;;;;;;6.72;4.20;;;;;;;14.04;90.39;101053.19;5066214;28;20688;-66
2022/09/12 06:41:24;;;;;;;7.40;5.00;;;;;;;14.11;93.39;101051.84;5066692;28;20131;-66
2022/09/12 06:43:52;;;;;;;7.85;5.13;;;;;;;14.17;93.04;101055.88;5065049;28;20356;-66
2022/09/12 06:46:19;;;;;;;8.55;4.93;;;;;;;14.23;92.42;101055.47;5068527;28;20053;-65
2022/09/12 06:48:47;;;;;;;7.32;3.95;;;;;;;14.26;92.25;101054.41;5061732;28;20056;-66
2022/09/12 06:51:17;;;;;;;8.00;5.00;;;;;;;14.31;90.93;101054.94;5069492;28;20056;-66
2022/09/12 06:53:45;;;;;;;9.00;4.63;;;;;;;14.40;90.71;101056.97;5068891;28;20092;-66
2022/09/12 06:56:14;;;;;;;9.85;5.43;;;;;;;14.45;91.99;101052.19;5069207;28;20060;-65
2022/09/12 06:58:42;;;;;;;6.13;4.28;;;;;;;14.52;91.60;101056.16;5075439;28;20497;-66
2022/09/12 07:01:14;;;;;;;11.15;4.93;;;;;;;14.57;90.88;101056.69;5049568;28;20040;-65
2022/09/12 07:03:42;;;;;;;12.43;5.57;;;;;;;14.64;90.76;101047.38;5071049;28;20056;-65
2022/09/12 07:06:11;;;;;;;11.23;5.82;;;;;;;14.73;91.08;101055.66;5051244;28;20404;-65
2022/09/12 07:08:39;;;;;;;10.30;5.72;;;;;;;14.74;90.65;101049.41;5035920;28;20043;-65
2022/09/12 07:11:15;;;;;;;7.63;5.22;;;;;;;14.77;90.20;101046.50;5068662;28;20560;-65
2022/09/12 07:13:48;;;;;;;7.55;5.10;;;;;;;14.85;89.43;101044.19;5067204;28;20040;-65
2022/09/12 07:16:16;;;;;;;12.02;5.80;;;;;;;14.89;89.29;101043.00;5071365;28;20052;-65
2022/09/12 07:18:57;;;;;;;7.47;5.20;;;;;;;14.95;90.13;101050.56;5064902;28;20447;-65
2022/09/12 07:21:25;;;;;;;16.77;5.03;;;;;;;14.99;90.28;101045.84;5065710;28;20049;-65
2022/09/12 07:23:54;;;;;;;7.93;5.05;;;;;;;15.03;89.56;101039.38;5067166;28;20053;-65
2022/09/12 07:26:21;;;;;;;9.25;5.50;;;;;;;15.11;89.59;101039.69;5068422;28;20056;-65
2022/09/12 07:28:54;;;;;;;6.03;4.35;;;;;;;15.15;89.48;101044.66;5066982;28;20539;-65
2022/09/12 07:31:41;;;;;;;7.05;4.78;;;;;;;15.22;88.59;101038.91;5070574;28;20519;-65
2022/09/12 07:34:08;;;;;;;11.00;6.90;;;;;;;15.30;88.20;101044.53;5068405;28;20082;-65
2022/09/12 07:36:36;;;;;;;9.93;5.55;;;;;;;15.37;88.26;101051.09;5066354;28;20055;-65
2022/09/12 07:39:03;;;;;;;7.20;5.88;;;;;;;15.41;91.30;101037.50;5067337;28;20052;-66
2022/09/12 07:41:32;;;;;;;7.55;5.55;;;;;;;15.44;89.82;101044.38;5069631;28;20056;-66
2022/09/12 07:44:01;;;;;;;6.32;5.03;;;;;;;15.53;88.92;101051.66;5066081;28;20236;-65
2022/09/12 07:46:29;;;;;;;7.00;4.25;;;;;;;15.59;88.80;101048.56;5066079;28;20513;-66
2022/09/12 07:48:57;;;;;;;10.02;4.40;;;;;;;15.68;88.51;101047.09;5050275;28;20052;-66
2022/09/12 07:51:25;;;;;;;5.75;3.95;;;;;;;15.76;87.75;101046.50;5051093;28;20048;-66
2022/09/12 07:53:53;;;;;;;7.95;3.95;;;;;;;15.81;87.85;101042.56;5071871;28;20048;-65
2022/09/12 07:56:20;;;;;;;6.90;3.85;;;;;;;15.85;87.85;101049.34;5069741;28;20052;-65
2022/09/12 07:58:53;;;;;;;8.50;4.38;;;;;;;15.93;87.47;101052.25;5055925;28;20416;-66
2022/09/12 08:01:23;;;;;;;9.25;5.43;;;;;;;16.03;88.00;101052.44;5068477;28;20059;-65
2022/09/12 08:04:00;;;;;;;12.52;5.45;;;;;;;16.03;88.69;101052.44;5065247;28;20044;-66
2022/09/12 08:06:30;;;;;;;10.23;6.03;;;;;;;16.07;88.56;101055.69;5050845;28;20604;-66
2022/09/12 08:08:58;;;;;;;6.43;3.95;;;;;;;16.14;88.02;101052.47;5067279;28;20045;-66
2022/09/12 08:11:27;;;;;;;7.35;4.80;;;;;;;16.21;88.09;101050.22;5049032;28;20049;-66
2022/09/12 08:13:56;;;;;;;5.78;3.95;;;;;;;16.24;88.43;101054.41;5048336;28;20049;-65
2022/09/12 08:16:26;;;;;;;7.18;4.25;;;;;;;16.32;87.88;101060.84;5069127;28;20056;-65
2022/09/12 08:18:53;;;;;;;5.00;3.35;;;;;;;16.42;86.04;101055.66;5067892;28;20054;-65
2022/09/12 08:21:22;;;;;;;6.63;3.60;;;;;;;16.41;86.43;101054.00;5067777;28;20548;-65
2022/09/12 08:23:58;;;;;;;6.80;3.47;;;;;;;16.39;86.50;101056.78;5066164;28;21334;-65
2022/09/12 08:26:25;;;;;;;8.40;3.78;;;;;;;16.34;84.86;101061.56;5063984;28;20055;-66
2022/09/12 08:28:52;;;;;;;6.25;3.55;;;;;;;16.35;85.26;101059.78;5043695;28;20052;-65
2022/09/12 08:31:21;;;;;;;6.72;3.35;;;;;;;16.40;85.27;101053.16;5066975;28;20075;-65
2022/09/12 08:33:50;;;;;;;4.50;3.30;;;;;;;16.53;85.20;101055.72;5076573;28;20045;-65
2022/09/12 08:36:20;;;;;;;6.35;3.00;;;;;;;16.67;85.02;101058.16;5071873;28;20063;-65
2022/09/12 08:38:49;;;;;;;3.80;2.17;;;;;;;16.78;84.54;101065.31;5067313;28;20523;-66
2022/09/12 08:41:27;;;;;;;4.28;2.67;;;;;;;16.89;84.67;101062.66;5080789;28;20052;-66
2022/09/12 08:44:02;;;;;;;7.22;2.90;;;;;;;17.02;83.36;101067.00;5068453;28;20045;-65
2022/09/12 08:47:00;;;;;;;5.43;2.17;;;;;;;17.09;83.02;101053.09;5069254;28;20057;-65
2022/09/12 08:49:34;;;;;;;3.72;2.47;;;;;;;17.15;82.15;101062.41;5069046;28;20056;-65
2022/09/12 08:52:05;;;;;;;5.80;2.63;;;;;;;17.20;81.36;101052.22;5071637;28;20055;-65
2022/09/12 08:54:33;;;;;;;4.60;1.80;;;;;;;17.19;78.13;101056.72;5045213;28;20041;-65
2022/09/12 08:57:04;;;;;;;2.80;1.50;;;;;;;17.17;77.38;101058.66;5075218;28;20067;-66
2022/09/12 08:59:37;;;;;;;2.95;1.90;;;;;;;17.17;77.74;101057.81;5054620;28;20052;-65
2022/09/12 09:02:40;;;;;;;3.33;2.22;;;;;;;17.10;77.67;101056.59;5035193;28;20068;-66
2022/09/12 09:05:15;;;;;;;7.15;2.63;;;;;;;17.14;78.29;101053.59;5067402;28;20064;-66
2022/09/12 09:08:09;;;;;;;4.65;1.85;;;;;;;17.16;77.78;101050.81;5070789;28;20748;-66
2022/09/12 09:11:18;;;;;;;5.47;2.00;;;;;;;17.21;77.79;101048.63;5065421;28;20429;-65
2022/09/12 09:16:56;;;;;;;3.65;1.70;;;;;;;17.35;76.84;101039.53;5053930;28;20071;-66
2022/09/12 09:19:27;;;;;;;5.63;1.85;;;;;;;17.40;76.08;101048.00;5050261;28;20190;-66
2022/09/12 09:21:58;;;;;;;5.47;1.50;;;;;;;17.41;75.58;101044.34;5067147;28;20056;-66
2022/09/12 09:24:46;;;;;;;6.07;2.28;;;;;;;17.45;75.01;101038.66;5064550;28;20421;-66
2022/09/12 09:27:24;;;;;;;2.67;1.25;;;;;;;17.43;73.38;101045.94;5066494;28;20076;-66
2022/09/12 09:30:18;;;;;;;9.60;2.22;;;;;;;17.39;73.97;101041.81;5056493;28;20056;-66
2022/09/12 09:32:49;;;;;;;4.72;1.77;;;;;;;17.42;74.31;101046.03;5075226;28;20036;-66
2022/09/12 09:35:25;;;;;;;2.47;1.20;;;;;;;17.48;74.51;101042.06;5066897;28;20057;-66
2022/09/12 09:37:57;;;;;;;3.50;1.15;;;;;;;17.53;72.96;101034.53;5051887;28;20052;-66
2022/09/12 09:40:43;;;;;;;2.78;1.05;;;;;;;17.64;73.03;101031.81;5053150;28;20623;-66
2022/09/12 09:43:17;;;;;;;1.98;1.10;;;;;;;17.80;72.81;101034.97;5046158;28;20084;-66
2022/09/12 09:45:44;;;;;;;2.15;1.02;;;;;;;17.98;72.63;101039.75;5067655;28;20266;-66
2022/09/12 09:48:18;;;;;;;2.10;1.10;;;;;;;18.14;72.29;101037.44;5067408;28;20528;-66
2022/09/12 09:50:47;;;;;;;7.05;1.75;;;;;;;18.20;70.15;101043.13;5068292;28;20067;-67
2022/09/12 09:53:41;;;;;;;5.63;1.38;;;;;;;18.22;68.98;101030.50;5062020;28;20120;-67
2022/09/12 09:56:25;;;;;;;2.90;1.30;;;;;;;18.14;67.11;101035.63;5052972;28;20067;-66
2022/09/12 09:58:53;;;;;;;1.45;0.90;;;;;;;18.03;66.50;101035.72;5051402;28;20528;-67
2022/09/12 10:01:20;;;;;;;3.47;1.00;;;;;;;18.00;66.77;101033.28;5050668;28;20049;-66
2022/09/12 10:03:50;;;;;;;2.03;0.95;;;;;;;18.13;67.73;101035.78;5063136;28;20480;-66
2022/09/12 10:06:31;;;;;;;4.85;1.20;;;;;;;18.29;67.76;101030.00;5054338;28;20053;-66
2022/09/12 10:09:16;;;;;;;2.78;0.75;;;;;;;18.49;67.63;101026.47;5053375;28;20059;-66
2022/09/12 10:11:43;;;;;;;1.20;0.90;;;;;;;18.68;67.31;101023.91;5070653;28;20072;-66
2022/09/12 10:14:33;;;;;;;3.70;1.02;;;;;;;18.87;67.20;101027.69;5068940;28;20071;-66
2022/09/12 10:17:22;;;;;;;1.95;1.20;;;;;;;18.94;66.73;101028.81;5073740;28;20056;-66
2022/09/12 10:19:50;;;;;;;2.58;0.90;;;;;;;18.93;64.04;101029.81;5060537;28;20698;-67
2022/09/12 10:22:37;;;;;;;3.40;0.80;;;;;;;18.96;64.66;101021.53;5072505;28;20131;-67
2022/09/12 10:25:10;;;;;;;1.83;0.80;;;;;;;18.89;60.71;101023.06;5037898;28;20450;-66
2022/09/12 10:27:37;;;;;;;1.45;1.00;;;;;;;18.70;59.49;101019.31;5063978;28;20045;-66
2022/09/12 10:30:14;;;;;;;2.70;1.13;;;;;;;18.58;60.26;101025.69;5051927;28;20052;-66
2022/09/12 10:32:43;;;;;;;2.78;0.80;;;;;;;18.66;61.49;101022.34;5051397;28;20052;-66
2022/09/12 10:35:22;;;;;;;2.50;0.90;;;;;;;18.84;61.07;101017.28;5073576;28;20048;-66
2022/09/12 10:38:02;;;;;;;1.73;0.77;;;;;;;19.05;62.07;101015.41;5066880;28;20044;-66
2022/09/12 10:40:34;;;;;;;2.72;0.93;;;;;;;19.31;61.48;101013.06;5050587;28;20074;-66
2022/09/12 10:43:02;;;;;;;2.90;0.82;;;;;;;19.49;61.74;101003.38;5048313;28;20505;-66
2022/09/12 10:45:37;;;;;;;2.28;0.90;;;;;;;19.65;61.56;101013.56;5050271;28;20056;-66
2022/09/12 10:48:26;;;;;;;2.33;1.15;;;;;;;19.83;60.39;101002.19;5063234;28;20755;-66
2022/09/12 10:50:53;;;;;;;3.80;1.38;;;;;;;19.98;57.84;101008.78;5045972;28;20036;-66
2022/09/12 10:53:24;;;;;;;2.05;1.23;;;;;;;19.96;56.74;101006.25;5066747;28;20052;-66
2022/09/12 10:56:08;;;;;;;2.03;0.90;;;;;;;20.08;57.03;101006.94;5064098;28;20044;-66
2022/09/12 10:58:39;;;;;;;3.50;0.90;;;;;;;20.15;57.91;101008.06;5041616;28;20132;-67
2022/09/12 11:01:31;;;;;;;1.88;0.82;;;;;;;20.26;56.44;101000.84;5068141;28;20075;-66
2022/09/12 11:04:13;;;;;;;4.63;1.48;;;;;;;20.41;56.42;101010.13;5060908;28;20048;-66
2022/09/12 11:07:08;;;;;;;5.32;1.30;;;;;;;20.56;55.96;101013.19;5044698;28;20059;-67
2022/09/12 11:09:49;;;;;;;5.88;1.10;;;;;;;20.65;54.35;101005.13;5063223;28;20043;-66
2022/09/12 11:12:25;;;;;;;3.47;1.05;;;;;;;20.72;55.18;101013.44;5066797;22;20302;-62
2022/09/12 11:15:26;;;;;;;4.55;1.10;;;;;;;20.83;53.82;101007.06;5086492;28;20071;-62
2022/09/12 11:18:05;;;;;;;3.50;1.42;;;;;;;20.97;54.09;101006.56;5088902;28;20048;-62
2022/09/12 11:20:45;;;;;;;2.55;1.05;;;;;;;21.08;54.54;101011.72;5062754;28;20139;-62
2022/09/12 11:23:50;;;;;;;5.95;1.77;;;;;;;21.17;53.49;101004.63;5087483;28;20047;-62
2022/09/12 11:27:00;;;;;;;5.68;1.95;;;;;;;21.21;54.00;101000.66;4996676;28;20057;-62
2022/09/12 11:29:56;;;;;;;5.28;1.77;;;;;;;21.16;52.39;101005.59;5043960;28;20052;-62
2022/09/12 11:32:51;;;;;;;6.47;1.50;;;;;;;21.29;53.95;101003.41;5089031;28;20058;-60
2022/09/12 11:35:27;;;;;;;3.30;1.60;;;;;;;21.35;49.68;101007.38;5085322;28;20062;-59
2022/09/12 11:38:05;;;;;;;5.90;1.67;;;;;;;21.36;50.66;100999.19;5078571;28;20060;-61
2022/09/12 11:40:55;;;;;;;4.57;1.00;;;;;;;21.60;50.42;101003.94;5081978;28;20043;-61
2022/09/12 11:43:35;;;;;;;2.17;1.13;;;;;;;21.40;48.30;101005.09;5082439;28;20060;-61
2022/09/12 11:46:11;;;;;;;1.48;0.98;;;;;;;21.44;50.29;100993.06;5077550;28;20059;-61
2022/09/12 11:48:50;;;;;;;2.80;1.02;;;;;;;21.60;50.16;100989.69;5081780;28;20048;-60
2022/09/12 11:51:19;;;;;;;4.03;1.48;;;;;;;21.98;50.42;100991.22;5077759;28;20052;-60
2022/09/12 11:53:58;;;;;;;2.22;1.00;;;;;;;22.29;49.72;100994.31;5081596;28;20057;-61
2022/09/12 11:56:25;;;;;;;1.90;0.90;;;;;;;22.53;49.19;100987.41;5081285;28;20051;-61